Time;durP1;ratioP1;P1;durP2;ratioP2;P2;SDS_P1;SDS_P2;PMS_P1;PMS_P2;Temp;Humidity;BMP_temperature;BMP_pressure;BME280_temperature;BME280_humidity;BME280_pressure;Samples;Min_cycle;Max_cycle;Signal;HPM_P1;HPM_P2
2022/03/13 00:00:30;;;;;;;176.55;68.05;;;;;;;-1.54;57.91;101885.50;5076186;28;20495;-63
2022/03/13 00:02:56;;;;;;;155.73;61.35;;;;;;;-1.50;56.94;101886.53;5075565;28;20464;-63
2022/03/13 00:05:22;;;;;;;193.80;75.20;;;;;;;-1.51;57.14;101884.78;5075977;28;20047;-63
2022/03/13 00:07:48;;;;;;;198.25;75.10;;;;;;;-1.58;57.27;101883.56;5076395;28;20062;-63
2022/03/13 00:10:19;;;;;;;157.90;57.50;;;;;;;-1.54;56.75;101887.19;5058254;28;20128;-63
2022/03/13 00:12:46;;;;;;;155.90;61.88;;;;;;;-1.54;56.55;101880.34;5075989;28;20369;-63
2022/03/13 00:15:12;;;;;;;147.43;56.92;;;;;;;-1.55;56.66;101890.59;5076041;28;20040;-63
2022/03/13 00:17:38;;;;;;;138.48;53.97;;;;;;;-1.56;56.74;101873.31;5074984;28;20510;-62
2022/03/13 00:20:05;;;;;;;157.20;59.00;;;;;;;-1.53;56.71;101873.50;5075612;28;20032;-63
2022/03/13 00:22:33;;;;;;;151.60;59.30;;;;;;;-1.49;56.75;101875.41;5074770;28;20040;-63
2022/03/13 00:25:00;;;;;;;143.50;55.58;;;;;;;-1.49;56.66;101872.84;5074859;28;20521;-63
2022/03/13 00:27:26;;;;;;;133.45;54.33;;;;;;;-1.45;56.48;101873.88;5057592;28;20066;-62
2022/03/13 00:29:52;;;;;;;129.70;52.25;;;;;;;-1.41;56.36;101875.81;5074975;28;20468;-63
2022/03/13 00:32:18;;;;;;;135.68;54.38;;;;;;;-1.42;56.34;101872.34;5074438;28;20097;-63
2022/03/13 00:34:43;;;;;;;132.55;53.10;;;;;;;-1.44;56.53;101870.50;5074792;28;20500;-63
2022/03/13 00:37:10;;;;;;;135.48;55.50;;;;;;;-1.51;56.79;101874.47;5055255;28;20032;-63
2022/03/13 00:39:38;;;;;;;116.68;51.35;;;;;;;-1.54;57.02;101879.47;5108489;28;20037;-63
2022/03/13 00:42:04;;;;;;;142.02;53.70;;;;;;;-1.58;56.89;101874.97;5074115;28;20044;-63
2022/03/13 00:44:29;;;;;;;147.77;54.88;;;;;;;-1.62;57.08;101865.31;5075648;28;20037;-62
2022/03/13 00:46:55;;;;;;;148.32;56.80;;;;;;;-1.65;57.11;101868.59;5075791;28;20108;-63
2022/03/13 00:49:20;;;;;;;148.70;58.20;;;;;;;-1.66;57.24;101873.69;5075691;28;20060;-63
2022/03/13 00:51:46;;;;;;;154.23;59.38;;;;;;;-1.69;57.06;101865.78;5055922;28;20057;-62
2022/03/13 00:54:11;;;;;;;154.40;60.78;;;;;;;-1.71;56.91;101872.56;5075382;28;20116;-63
2022/03/13 00:56:38;;;;;;;151.02;60.40;;;;;;;-1.69;57.04;101863.22;5037730;28;20040;-62
2022/03/13 00:59:03;;;;;;;142.60;56.97;;;;;;;-1.70;57.08;101871.75;5072259;28;20447;-63
2022/03/13 01:01:28;;;;;;;145.75;59.63;;;;;;;-1.76;57.12;101873.19;5074271;28;20043;-63
2022/03/13 01:03:54;;;;;;;140.57;54.30;;;;;;;-1.75;57.33;101872.41;5075807;28;20072;-63
2022/03/13 01:06:21;;;;;;;128.38;50.00;;;;;;;-1.80;57.25;101858.38;5074965;28;20046;-63
2022/03/13 01:08:47;;;;;;;118.30;48.38;;;;;;;-1.83;57.06;101871.13;5073969;28;20468;-63
2022/03/13 01:11:21;;;;;;;135.57;51.97;;;;;;;-1.82;57.40;101878.03;5055165;28;20037;-63
2022/03/13 01:13:47;;;;;;;116.65;45.95;;;;;;;-1.83;57.50;101873.69;5074139;28;20083;-63
2022/03/13 01:16:20;;;;;;;103.55;44.08;;;;;;;-1.86;57.68;101870.94;5053567;28;20484;-62
2022/03/13 01:18:47;;;;;;;120.53;48.55;;;;;;;-1.88;57.88;101875.13;5054555;28;20028;-62
2022/03/13 01:21:13;;;;;;;126.18;48.45;;;;;;;-1.89;58.01;101869.91;5074672;28;20543;-62
2022/03/13 01:23:40;;;;;;;133.73;52.92;;;;;;;-1.93;58.19;101863.69;5057150;28;20025;-62
2022/03/13 01:26:23;;;;;;;118.72;47.63;;;;;;;-1.91;58.66;101859.53;5053461;28;20392;-62
2022/03/13 01:28:53;;;;;;;153.80;60.83;;;;;;;-1.86;58.25;101852.91;5072761;28;20036;-63
2022/03/13 01:31:27;;;;;;;111.45;45.90;;;;;;;-1.77;57.86;101848.22;5074844;28;20028;-63
2022/03/13 01:33:53;;;;;;;119.53;51.08;;;;;;;-1.69;58.08;101845.16;5073862;28;20060;-63
2022/03/13 01:36:18;;;;;;;129.50;52.03;;;;;;;-1.64;57.83;101847.16;5074746;28;20068;-63
2022/03/13 01:38:44;;;;;;;120.07;47.40;;;;;;;-1.59;57.60;101844.84;5074650;28;20104;-63
2022/03/13 01:41:09;;;;;;;120.07;48.33;;;;;;;-1.57;57.74;101844.09;5073401;28;20033;-63
2022/03/13 01:43:35;;;;;;;136.68;56.13;;;;;;;-1.57;57.63;101843.22;5074704;28;20024;-62
2022/03/13 01:46:03;;;;;;;160.27;62.47;;;;;;;-1.70;57.76;101846.88;5069673;28;20480;-63
2022/03/13 01:48:29;;;;;;;146.68;60.72;;;;;;;-1.86;58.29;101855.50;5065230;28;20036;-63
2022/03/13 01:50:55;;;;;;;149.57;61.97;;;;;;;-1.98;58.74;101841.97;5073182;28;20047;-63
2022/03/13 01:53:21;;;;;;;151.15;59.03;;;;;;;-2.04;58.98;101845.09;5056769;28;20052;-63
2022/03/13 01:55:48;;;;;;;156.07;62.60;;;;;;;-2.12;59.27;101845.50;5072771;28;20466;-63
2022/03/13 01:58:15;;;;;;;164.18;61.20;;;;;;;-2.10;59.06;101843.91;5056129;28;20039;-63
2022/03/13 02:00:41;;;;;;;160.60;62.95;;;;;;;-2.19;59.51;101839.16;5072620;28;20032;-63
2022/03/13 02:03:06;;;;;;;130.07;50.00;;;;;;;-2.14;59.02;101848.00;5055984;28;20033;-62
2022/03/13 02:05:34;;;;;;;147.32;57.50;;;;;;;-2.14;59.28;101847.13;5073660;28;20029;-62
2022/03/13 02:08:10;;;;;;;164.82;58.88;;;;;;;-2.18;59.45;101845.19;5072980;28;20028;-62
2022/03/13 02:10:36;;;;;;;137.77;50.13;;;;;;;-2.16;59.35;101847.03;5072802;28;20047;-62
2022/03/13 02:13:01;;;;;;;140.32;51.90;;;;;;;-2.16;58.73;101839.28;5069061;28;20036;-62
2022/03/13 02:15:31;;;;;;;134.75;53.28;;;;;;;-2.27;58.43;101843.91;5064608;28;20158;-62
2022/03/13 02:17:56;;;;;;;137.32;49.55;;;;;;;-2.28;58.63;101844.69;5072705;28;20024;-62
2022/03/13 02:20:26;;;;;;;129.68;49.92;;;;;;;-2.26;58.63;101847.34;5073581;28;20484;-62
2022/03/13 02:22:53;;;;;;;130.48;47.30;;;;;;;-2.19;58.72;101846.88;5072868;28;20029;-62
2022/03/13 02:25:22;;;;;;;121.20;47.78;;;;;;;-2.11;58.63;101847.28;5070845;28;20483;-62
2022/03/13 02:27:47;;;;;;;132.85;51.25;;;;;;;-2.15;58.18;101851.41;5072666;28;20024;-62
2022/03/13 02:30:13;;;;;;;123.82;47.97;;;;;;;-2.14;58.31;101852.28;5073267;28;20539;-62
2022/03/13 02:32:39;;;;;;;129.20;48.30;;;;;;;-2.10;58.71;101855.09;5055483;28;20438;-63
2022/03/13 02:35:04;;;;;;;133.88;49.78;;;;;;;-2.07;58.22;101859.53;5073468;28;20032;-62
2022/03/13 02:37:37;;;;;;;136.00;53.28;;;;;;;-2.06;58.48;101857.03;5073441;28;20489;-63
2022/03/13 02:40:04;;;;;;;133.40;50.05;;;;;;;-2.06;58.66;101857.03;5072157;28;20035;-63
2022/03/13 02:42:30;;;;;;;144.60;57.95;;;;;;;-2.10;58.33;101852.50;5072080;28;20040;-63
2022/03/13 02:44:55;;;;;;;130.05;52.00;;;;;;;-2.21;58.72;101850.16;5073109;28;20382;-63
2022/03/13 02:47:21;;;;;;;149.00;57.55;;;;;;;-2.24;58.84;101864.63;5073072;28;20040;-62
2022/03/13 02:49:46;;;;;;;137.75;54.58;;;;;;;-2.23;58.83;101850.09;5073614;28;20032;-62
2022/03/13 02:52:11;;;;;;;120.57;47.80;;;;;;;-2.19;59.01;101851.13;5072833;28;20499;-63
2022/03/13 02:54:37;;;;;;;124.82;46.28;;;;;;;-2.24;58.15;101851.75;5073581;28;20514;-63
2022/03/13 02:57:03;;;;;;;123.65;49.35;;;;;;;-2.29;58.33;101852.34;5072765;28;20035;-62
2022/03/13 02:59:29;;;;;;;117.15;46.92;;;;;;;-2.31;59.01;101849.69;5072139;28;20043;-63
2022/03/13 03:01:55;;;;;;;115.22;46.10;;;;;;;-2.22;59.09;101840.69;5073330;28;20037;-63
2022/03/13 03:04:25;;;;;;;121.72;47.35;;;;;;;-2.19;58.45;101843.41;5072605;28;20062;-62
2022/03/13 03:06:55;;;;;;;109.95;43.65;;;;;;;-2.15;58.70;101846.25;5055639;28;20404;-63
2022/03/13 03:09:20;;;;;;;111.88;46.80;;;;;;;-2.14;58.28;101839.41;5071973;28;20085;-62
2022/03/13 03:11:47;;;;;;;137.57;53.97;;;;;;;-2.26;58.00;101837.94;5072293;28;20036;-63
2022/03/13 03:14:13;;;;;;;108.20;44.17;;;;;;;-2.35;58.04;101842.59;5071360;28;20063;-63
2022/03/13 03:16:38;;;;;;;123.25;47.65;;;;;;;-2.42;58.79;101843.06;5075583;28;20032;-63
2022/03/13 03:19:04;;;;;;;111.38;46.35;;;;;;;-2.39;58.58;101845.81;5073115;28;20044;-64
2022/03/13 03:21:30;;;;;;;109.57;43.05;;;;;;;-2.36;59.07;101845.97;5076262;28;20396;-62
2022/03/13 03:23:55;;;;;;;121.38;47.95;;;;;;;-2.34;59.03;101857.25;5075976;28;20040;-62
2022/03/13 03:26:21;;;;;;;118.95;43.28;;;;;;;-2.36;58.98;101853.69;5075105;28;20029;-63
2022/03/13 03:28:46;;;;;;;111.68;42.13;;;;;;;-2.37;58.89;101853.63;5076155;28;20036;-62
2022/03/13 03:31:12;;;;;;;121.28;45.25;;;;;;;-2.40;59.28;101851.75;5059126;28;20036;-63
2022/03/13 03:33:37;;;;;;;156.05;59.95;;;;;;;-2.41;59.49;101847.41;5077243;28;20028;-63
2022/03/13 03:36:03;;;;;;;158.35;58.40;;;;;;;-2.42;59.80;101847.34;5075018;28;20043;-63
2022/03/13 03:38:28;;;;;;;125.43;49.75;;;;;;;-2.39;59.56;101861.25;5058938;28;20468;-63
2022/03/13 03:40:54;;;;;;;128.27;47.15;;;;;;;-2.34;59.59;101849.50;5076164;28;20075;-63
2022/03/13 03:43:19;;;;;;;123.88;46.03;;;;;;;-2.26;59.20;101849.94;5077112;28;20041;-63
2022/03/13 03:45:45;;;;;;;155.57;60.65;;;;;;;-2.27;58.81;101859.34;5076536;28;20044;-63
2022/03/13 03:48:10;;;;;;;151.30;56.85;;;;;;;-2.32;59.16;101858.19;5075212;28;20062;-63
2022/03/13 03:50:36;;;;;;;153.35;58.88;;;;;;;-2.29;58.91;101863.50;5075428;28;20024;-62
2022/03/13 03:53:01;;;;;;;160.05;59.75;;;;;;;-2.36;59.27;101869.13;5075013;28;20058;-62
2022/03/13 03:55:27;;;;;;;136.73;50.35;;;;;;;-2.40;58.72;101862.03;5076202;28;20495;-63
2022/03/13 03:57:53;;;;;;;126.63;47.45;;;;;;;-2.50;58.99;101859.78;5075032;28;20488;-63
2022/03/13 04:00:19;;;;;;;116.18;46.80;;;;;;;-2.56;59.44;101856.88;5076400;28;20043;-63
2022/03/13 04:02:45;;;;;;;109.18;42.75;;;;;;;-2.56;59.62;101856.88;5074604;28;20024;-63
2022/03/13 04:05:11;;;;;;;119.68;45.85;;;;;;;-2.50;59.79;101862.38;5075301;28;20032;-62
2022/03/13 04:07:37;;;;;;;109.20;43.75;;;;;;;-2.51;59.95;101856.34;5075119;28;20028;-63
2022/03/13 04:10:10;;;;;;;120.80;47.53;;;;;;;-2.46;60.01;101859.16;5057124;28;20111;-63
2022/03/13 04:12:36;;;;;;;128.40;44.47;;;;;;;-2.39;59.84;101856.13;5071485;28;20035;-63
2022/03/13 04:15:02;;;;;;;106.43;43.40;;;;;;;-2.30;59.54;101859.19;5057515;28;20044;-63
2022/03/13 04:17:29;;;;;;;97.68;41.63;;;;;;;-2.21;59.52;101856.19;5058633;28;20040;-63
2022/03/13 04:19:54;;;;;;;106.40;42.97;;;;;;;-2.20;59.49;101857.97;5074975;28;20029;-63
2022/03/13 04:22:20;;;;;;;97.43;40.67;;;;;;;-2.18;59.54;101850.34;5075685;28;20513;-63
2022/03/13 04:24:45;;;;;;;94.85;41.20;;;;;;;-2.16;59.60;101852.19;5075004;28;20060;-63
2022/03/13 04:27:11;;;;;;;97.78;41.00;;;;;;;-2.20;59.55;101852.81;5075795;28;20033;-63
2022/03/13 04:29:37;;;;;;;89.47;38.20;;;;;;;-2.24;59.95;101862.06;5076133;28;20547;-63
2022/03/13 04:32:04;;;;;;;94.82;38.38;;;;;;;-2.27;59.66;101851.63;5075557;28;20038;-63
2022/03/13 04:34:29;;;;;;;88.70;36.45;;;;;;;-2.32;60.06;101865.03;5054312;28;20098;-63
2022/03/13 04:36:55;;;;;;;84.05;35.17;;;;;;;-2.38;60.16;101863.03;5074874;28;20373;-63
2022/03/13 04:39:21;;;;;;;79.80;35.83;;;;;;;-2.49;60.22;101870.16;5075658;28;20054;-64
2022/03/13 04:41:46;;;;;;;67.45;32.75;;;;;;;-2.52;60.56;101863.94;5076052;28;20149;-63
2022/03/13 04:44:17;;;;;;;70.00;31.08;;;;;;;-2.55;60.55;101863.81;5074936;28;20037;-63
2022/03/13 04:46:43;;;;;;;72.45;32.08;;;;;;;-2.59;60.89;101857.59;5075471;28;20102;-64
2022/03/13 04:49:08;;;;;;;74.68;32.90;;;;;;;-2.60;60.96;101860.06;5075310;28;20396;-64
2022/03/13 04:51:34;;;;;;;71.90;34.90;;;;;;;-2.54;60.97;101856.16;5075303;28;20044;-64
2022/03/13 04:54:00;;;;;;;71.05;32.90;;;;;;;-2.53;61.06;101851.88;5075271;28;20086;-63
2022/03/13 04:56:25;;;;;;;68.75;30.02;;;;;;;-2.53;60.89;101862.19;5075702;28;20451;-64
2022/03/13 04:58:51;;;;;;;64.95;29.95;;;;;;;-2.52;60.88;101853.66;5070846;28;20086;-63
2022/03/13 05:01:19;;;;;;;64.85;28.80;;;;;;;-2.54;60.85;101855.28;5065666;28;20448;-63
2022/03/13 05:03:45;;;;;;;61.10;28.83;;;;;;;-2.60;61.17;101852.34;5075465;28;20044;-63
2022/03/13 05:06:11;;;;;;;60.50;28.02;;;;;;;-2.65;61.40;101853.78;5073535;28;20033;-64
2022/03/13 05:08:36;;;;;;;63.85;29.38;;;;;;;-2.60;61.61;101858.38;5073745;28;20039;-64
2022/03/13 05:11:06;;;;;;;60.47;27.10;;;;;;;-2.55;61.28;101861.22;5075367;28;20029;-63
2022/03/13 05:13:33;;;;;;;54.03;26.20;;;;;;;-2.57;61.40;101868.84;5075014;28;20031;-66
2022/03/13 05:15:58;;;;;;;55.95;27.38;;;;;;;-2.61;61.71;101864.34;5040459;28;20040;-64
2022/03/13 05:18:24;;;;;;;54.50;26.45;;;;;;;-2.60;61.66;101865.22;5074750;28;20043;-64
2022/03/13 05:20:49;;;;;;;53.45;25.73;;;;;;;-2.63;62.36;101865.03;5053153;28;20492;-63
2022/03/13 05:23:15;;;;;;;51.75;26.00;;;;;;;-2.58;62.05;101871.34;5055063;28;20033;-63
2022/03/13 05:25:41;;;;;;;57.28;28.55;;;;;;;-2.56;61.98;101860.31;5072717;28;20087;-64
2022/03/13 05:28:10;;;;;;;53.15;25.33;;;;;;;-2.49;61.81;101870.16;5072399;28;20029;-63
2022/03/13 05:30:37;;;;;;;57.53;25.77;;;;;;;-2.43;61.65;101864.47;5074674;28;20035;-63
2022/03/13 05:33:04;;;;;;;56.35;27.73;;;;;;;-2.31;61.44;101869.41;5073470;28;20123;-63
2022/03/13 05:35:30;;;;;;;56.05;27.42;;;;;;;-2.20;61.19;101870.84;5056477;28;20044;-63
2022/03/13 05:37:55;;;;;;;57.97;28.30;;;;;;;-2.10;60.86;101867.09;5073101;28;20082;-64
2022/03/13 05:40:21;;;;;;;54.83;26.90;;;;;;;-2.02;60.62;101868.38;5074457;28;20460;-63
2022/03/13 05:42:50;;;;;;;65.75;30.98;;;;;;;-1.89;60.23;101875.06;5074633;28;20028;-64
2022/03/13 05:45:19;;;;;;;64.22;30.25;;;;;;;-1.75;59.97;101879.25;5056323;28;20032;-64
2022/03/13 05:47:46;;;;;;;58.63;27.85;;;;;;;-1.66;59.71;101877.13;5073907;28;20037;-64
2022/03/13 05:50:12;;;;;;;59.20;26.85;;;;;;;-1.64;59.54;101874.63;5072375;28;20036;-64
2022/03/13 05:52:38;;;;;;;45.00;22.13;;;;;;;-1.47;59.41;101878.97;5056512;28;20063;-64
2022/03/13 05:55:05;;;;;;;53.15;25.70;;;;;;;-1.27;58.85;101883.44;5072319;28;20040;-63
2022/03/13 05:57:31;;;;;;;63.40;27.45;;;;;;;-1.09;58.30;101885.16;5072962;28;20035;-64
2022/03/13 05:59:56;;;;;;;55.65;25.98;;;;;;;-0.91;57.82;101875.75;5074615;28;20044;-63
2022/03/13 06:02:22;;;;;;;62.55;27.73;;;;;;;-0.75;57.22;101873.09;5073227;28;20040;-63
2022/03/13 06:04:48;;;;;;;67.97;28.70;;;;;;;-0.59;56.41;101879.88;5072590;28;20111;-62
2022/03/13 06:07:13;;;;;;;74.45;31.38;;;;;;;-0.47;56.29;101876.09;5039086;28;20442;-63
2022/03/13 06:09:39;;;;;;;91.25;37.88;;;;;;;-0.38;55.96;101881.69;5073720;28;20098;-62
2022/03/13 06:12:05;;;;;;;79.88;31.98;;;;;;;-0.36;55.83;101886.13;5074205;28;20158;-63
2022/03/13 06:14:30;;;;;;;69.78;29.10;;;;;;;-0.25;55.41;101891.75;5070787;28;20044;-63
2022/03/13 06:16:56;;;;;;;66.03;31.15;;;;;;;-0.14;55.33;101900.03;5072967;28;20452;-63
2022/03/13 06:19:21;;;;;;;73.32;32.10;;;;;;;-0.08;55.39;101892.53;5073332;28;20051;-63
2022/03/13 06:21:48;;;;;;;64.93;30.17;;;;;;;0.02;55.07;101897.31;5072674;28;20396;-63
2022/03/13 06:24:14;;;;;;;85.40;33.17;;;;;;;0.14;54.83;101897.00;5070841;28;20048;-63
2022/03/13 06:26:39;;;;;;;73.00;29.52;;;;;;;0.29;54.85;101901.97;5053614;28;20037;-63
2022/03/13 06:29:05;;;;;;;64.72;29.38;;;;;;;0.44;54.46;101897.47;5072942;28;20498;-63
2022/03/13 06:31:30;;;;;;;66.68;30.60;;;;;;;0.58;54.16;101898.94;5072314;28;20456;-63
2022/03/13 06:33:56;;;;;;;48.28;24.75;;;;;;;0.74;53.88;101909.13;5072467;28;20033;-63
2022/03/13 06:36:21;;;;;;;58.67;27.58;;;;;;;0.84;54.03;101906.91;5031730;28;20047;-63
2022/03/13 06:38:47;;;;;;;63.40;31.08;;;;;;;0.99;53.18;101915.31;5073343;28;20033;-64
2022/03/13 06:41:12;;;;;;;53.20;26.98;;;;;;;1.12;53.28;101907.25;5071693;28;20372;-63
2022/03/13 06:43:38;;;;;;;53.17;26.45;;;;;;;1.26;52.62;101910.41;5070153;28;20090;-63
2022/03/13 06:46:04;;;;;;;56.97;27.80;;;;;;;1.37;52.47;101913.44;5054841;28;20029;-63
2022/03/13 06:48:31;;;;;;;62.15;29.20;;;;;;;1.48;52.46;101914.75;5069068;28;21727;-63
2022/03/13 06:50:57;;;;;;;74.90;32.33;;;;;;;1.65;52.08;101911.09;5090585;28;20057;-64
2022/03/13 06:53:24;;;;;;;79.07;33.63;;;;;;;1.81;52.12;101912.59;5075251;28;20052;-63
2022/03/13 06:55:51;;;;;;;72.70;30.60;;;;;;;1.93;51.83;101906.97;5072203;28;20028;-64
2022/03/13 06:58:17;;;;;;;54.33;24.70;;;;;;;2.12;51.60;101914.63;5090020;28;20170;-64
2022/03/13 07:00:44;;;;;;;76.03;33.70;;;;;;;2.24;50.92;101913.31;5074336;28;20032;-64
2022/03/13 07:03:10;;;;;;;52.78;26.00;;;;;;;2.38;50.67;101917.28;5092893;28;20032;-63
2022/03/13 07:05:36;;;;;;;50.67;24.52;;;;;;;2.47;50.52;101909.81;5074827;28;20032;-64
2022/03/13 07:08:01;;;;;;;54.97;26.65;;;;;;;2.57;50.14;101914.50;5072664;28;20043;-64
2022/03/13 07:10:27;;;;;;;51.08;24.38;;;;;;;2.73;49.85;101915.94;5072211;28;20041;-65
2022/03/13 07:12:55;;;;;;;63.45;29.17;;;;;;;2.85;49.01;101911.16;5068186;28;20040;-63
2022/03/13 07:15:21;;;;;;;46.83;23.13;;;;;;;3.03;48.79;101913.47;5068388;28;20032;-63
2022/03/13 07:17:46;;;;;;;52.95;24.58;;;;;;;3.24;48.42;101909.84;5071741;28;20036;-63
2022/03/13 07:20:13;;;;;;;46.92;22.92;;;;;;;3.51;48.20;101907.22;5072712;28;20040;-62
2022/03/13 07:22:40;;;;;;;46.65;21.30;;;;;;;3.80;48.08;101918.56;5072057;28;20414;-63
2022/03/13 07:25:05;;;;;;;49.50;22.58;;;;;;;4.03;47.36;101907.13;5071720;28;20076;-63
2022/03/13 07:27:31;;;;;;;47.72;22.10;;;;;;;4.23;46.73;101910.31;5073045;28;20028;-63
2022/03/13 07:29:56;;;;;;;38.58;20.15;;;;;;;4.37;46.00;101900.28;5072502;28;20037;-63
2022/03/13 07:32:22;;;;;;;29.77;16.10;;;;;;;4.48;44.88;101911.00;5067875;28;20041;-63
2022/03/13 07:34:47;;;;;;;35.55;17.50;;;;;;;4.55;44.38;101908.59;5051553;28;20036;-63
2022/03/13 07:37:13;;;;;;;30.17;16.35;;;;;;;4.62;43.85;101914.84;5054414;28;20037;-63
2022/03/13 07:39:39;;;;;;;28.02;15.10;;;;;;;4.73;43.69;101917.72;5072783;28;20037;-63
2022/03/13 07:42:05;;;;;;;23.95;14.70;;;;;;;4.79;43.28;101908.38;5071606;28;20403;-64
2022/03/13 07:44:30;;;;;;;32.42;17.88;;;;;;;4.86;42.62;101914.59;5055554;28;20406;-63
2022/03/13 07:46:56;;;;;;;33.13;16.85;;;;;;;4.95;42.44;101912.25;5075297;28;20599;-64
2022/03/13 07:49:21;;;;;;;29.60;15.90;;;;;;;5.07;42.32;101909.97;5071967;28;20438;-63
2022/03/13 07:51:49;;;;;;;31.52;17.25;;;;;;;5.16;41.77;101918.00;5071123;28;20131;-63
2022/03/13 07:54:15;;;;;;;27.40;15.15;;;;;;;5.28;41.86;101909.59;5051486;28;20469;-63
2022/03/13 07:56:42;;;;;;;22.65;13.68;;;;;;;5.40;41.46;101920.31;5063474;28;20031;-64
2022/03/13 07:59:07;;;;;;;29.10;17.25;;;;;;;5.47;41.12;101916.16;5051409;28;20047;-63
2022/03/13 08:01:33;;;;;;;26.80;14.73;;;;;;;5.59;40.98;101932.06;5068442;28;20123;-63
2022/03/13 08:04:01;;;;;;;27.30;15.40;;;;;;;5.65;40.29;101932.19;5076617;28;20090;-63
2022/03/13 08:06:27;;;;;;;25.98;13.60;;;;;;;5.77;40.32;101931.59;5075379;28;20553;-63
2022/03/13 08:08:54;;;;;;;27.38;15.55;;;;;;;5.86;40.22;101930.94;5074955;28;20033;-63
2022/03/13 08:11:19;;;;;;;27.52;14.68;;;;;;;5.92;39.88;101928.50;5088202;28;20044;-64
2022/03/13 08:13:44;;;;;;;28.20;14.63;;;;;;;6.07;39.79;101930.56;5077359;28;20083;-62
2022/03/13 08:16:10;;;;;;;30.40;16.27;;;;;;;6.15;39.57;101935.09;5078780;28;20491;-64
2022/03/13 08:18:36;;;;;;;31.42;15.90;;;;;;;6.26;39.14;101931.81;5058259;28;20041;-63
2022/03/13 08:21:02;;;;;;;36.53;18.90;;;;;;;6.37;38.98;101932.91;5073907;28;20119;-62
2022/03/13 08:23:28;;;;;;;31.83;15.93;;;;;;;6.47;38.70;101932.28;5074496;28;20108;-62
2022/03/13 08:25:54;;;;;;;27.42;14.80;;;;;;;6.59;38.24;101929.91;5074411;28;20033;-65
2022/03/13 08:28:19;;;;;;;23.13;12.32;;;;;;;6.72;38.05;101932.75;5038713;28;20072;-63
2022/03/13 08:30:45;;;;;;;26.55;14.70;;;;;;;6.77;37.53;101931.09;5058045;28;20395;-62
2022/03/13 08:33:10;;;;;;;26.38;14.18;;;;;;;6.92;37.31;101931.38;5075563;28;20456;-62
2022/03/13 08:35:35;;;;;;;29.27;15.85;;;;;;;6.98;37.14;101922.75;5076192;28;20456;-62
2022/03/13 08:38:01;;;;;;;28.00;15.05;;;;;;;7.03;36.89;101924.59;5075430;28;20519;-62
2022/03/13 08:40:26;;;;;;;25.08;13.40;;;;;;;7.11;36.52;101917.78;5075924;28;20044;-62
2022/03/13 08:42:53;;;;;;;27.25;17.10;;;;;;;7.23;36.06;101914.50;5075023;28;20032;-63
2022/03/13 08:45:19;;;;;;;31.95;20.08;;;;;;;7.35;35.85;101916.44;5075459;28;20029;-62
2022/03/13 08:47:45;;;;;;;31.63;18.00;;;;;;;7.43;35.49;101917.41;5075729;28;20048;-62
2022/03/13 08:50:11;;;;;;;32.80;19.45;;;;;;;7.51;35.22;101915.81;5074283;28;20051;-63
2022/03/13 08:52:36;;;;;;;22.85;15.00;;;;;;;7.60;35.19;101909.81;5074570;28;20049;-63
2022/03/13 08:55:03;;;;;;;24.67;15.40;;;;;;;7.71;35.03;101916.09;5072100;28;20039;-63
2022/03/13 08:57:28;;;;;;;26.05;15.73;;;;;;;7.78;34.90;101910.09;5074276;28;20036;-62
2022/03/13 08:59:54;;;;;;;26.40;16.25;;;;;;;7.88;34.42;101916.34;5073991;28;20035;-63
2022/03/13 09:02:22;;;;;;;22.55;14.80;;;;;;;7.92;34.31;101912.91;5075643;28;20064;-62
2022/03/13 09:04:47;;;;;;;23.95;13.48;;;;;;;7.97;33.93;101912.97;5073908;28;20032;-63
2022/03/13 09:07:13;;;;;;;23.52;14.80;;;;;;;8.01;33.90;101910.41;5075004;28;20082;-62
2022/03/13 09:09:38;;;;;;;24.17;14.18;;;;;;;8.07;33.81;101910.50;5075578;28;20060;-62
2022/03/13 09:12:06;;;;;;;24.02;13.88;;;;;;;8.10;33.64;101910.53;5073211;28;20063;-62
2022/03/13 09:14:34;;;;;;;21.33;12.88;;;;;;;8.17;33.76;101907.97;5069495;28;20068;-62
2022/03/13 09:17:01;;;;;;;35.10;19.95;;;;;;;8.24;33.56;101918.56;5054074;28;20025;-62
2022/03/13 09:19:26;;;;;;;26.77;15.35;;;;;;;8.32;33.55;101913.41;5044442;28;20041;-62
2022/03/13 09:21:52;;;;;;;24.42;15.20;;;;;;;8.38;33.49;101916.16;5074541;28;20389;-62
2022/03/13 09:24:17;;;;;;;24.55;15.60;;;;;;;8.45;33.41;101910.09;5072452;28;20086;-62
2022/03/13 09:26:43;;;;;;;22.15;14.68;;;;;;;8.50;33.01;101907.56;5074392;28;20033;-62
2022/03/13 09:29:09;;;;;;;21.13;13.98;;;;;;;8.58;32.91;101911.13;5056958;28;20039;-63
2022/03/13 09:31:35;;;;;;;21.02;12.45;;;;;;;8.63;32.89;101907.69;5073046;28;20028;-62
2022/03/13 09:34:01;;;;;;;19.52;12.18;;;;;;;8.69;32.62;101901.63;5056232;28;20499;-63
2022/03/13 09:36:26;;;;;;;23.17;13.23;;;;;;;8.76;32.54;101900.81;5054651;28;20538;-62
2022/03/13 09:38:52;;;;;;;23.00;13.75;;;;;;;8.82;32.23;101903.53;5073967;28;20070;-62
2022/03/13 09:41:19;;;;;;;20.80;12.80;;;;;;;8.88;32.35;101900.06;5071718;28;20040;-64
2022/03/13 09:43:45;;;;;;;21.75;12.75;;;;;;;8.93;31.49;101906.22;5073179;28;20039;-62
2022/03/13 09:46:12;;;;;;;21.50;13.20;;;;;;;8.95;31.09;101896.66;5074670;28;20032;-63
2022/03/13 09:48:39;;;;;;;20.73;13.32;;;;;;;9.04;31.16;101904.59;5060022;28;20044;-63
2022/03/13 09:51:06;;;;;;;19.88;12.93;;;;;;;9.11;31.24;101906.41;5071876;28;20042;-63
2022/03/13 09:53:35;;;;;;;19.92;11.90;;;;;;;9.21;30.90;101906.47;5072399;28;20051;-63
2022/03/13 09:56:03;;;;;;;18.27;12.02;;;;;;;9.28;30.70;101908.28;5074968;28;20053;-64
2022/03/13 09:58:30;;;;;;;17.85;11.68;;;;;;;9.35;30.58;101907.47;5083243;28;20039;-63
2022/03/13 10:00:57;;;;;;;17.77;11.30;;;;;;;9.38;30.24;101902.25;5072618;28;20062;-64
2022/03/13 10:03:22;;;;;;;18.65;11.25;;;;;;;9.44;30.10;101906.66;5076536;28;20058;-63
2022/03/13 10:05:49;;;;;;;20.70;11.65;;;;;;;9.49;30.05;101903.19;5080406;28;20391;-63
2022/03/13 10:08:17;;;;;;;19.85;12.38;;;;;;;9.55;29.50;101903.25;5059281;28;20044;-62
2022/03/13 10:10:50;;;;;;;19.23;12.27;;;;;;;9.66;29.40;101898.06;5072698;28;20024;-62
2022/03/13 10:13:32;;;;;;;20.85;12.55;;;;;;;9.71;29.57;101901.59;5072922;28;20033;-62
2022/03/13 10:15:58;;;;;;;17.60;12.45;;;;;;;9.65;28.33;101903.28;5054284;28;20041;-63
2022/03/13 10:18:25;;;;;;;17.63;11.10;;;;;;;9.75;29.02;101899.88;5054009;28;20083;-63
2022/03/13 10:20:52;;;;;;;26.20;13.57;;;;;;;9.72;28.86;101894.59;5089129;28;20135;-62
2022/03/13 10:23:19;;;;;;;18.83;12.35;;;;;;;9.82;29.11;101899.03;5052619;28;20041;-63
2022/03/13 10:25:47;;;;;;;22.02;13.70;;;;;;;9.90;29.12;101897.34;5065635;28;20055;-63
2022/03/13 10:28:23;;;;;;;19.05;12.38;;;;;;;9.99;28.95;101900.00;5072384;28;20043;-63
2022/03/13 10:31:15;;;;;;;20.38;12.73;;;;;;;10.10;27.42;101887.81;5072062;28;20128;-63
2022/03/13 10:33:43;;;;;;;21.70;12.77;;;;;;;10.18;28.81;101884.34;5073651;28;20089;-63
2022/03/13 10:36:10;;;;;;;23.50;15.95;;;;;;;10.24;28.41;101884.34;5074673;28;20036;-63
2022/03/13 10:38:36;;;;;;;26.35;15.00;;;;;;;10.33;28.26;101889.66;5078692;28;20028;-63
2022/03/13 10:41:08;;;;;;;21.67;13.30;;;;;;;10.38;28.03;101887.94;5075595;28;20035;-63
2022/03/13 10:43:37;;;;;;;18.00;12.25;;;;;;;10.38;27.56;101882.69;5082006;28;20051;-63
2022/03/13 10:46:04;;;;;;;19.65;12.70;;;;;;;10.38;27.75;101882.69;5072008;28;20029;-62
2022/03/13 10:48:37;;;;;;;19.13;12.82;;;;;;;10.48;27.72;101880.94;5072127;28;20060;-63
2022/03/13 10:51:12;;;;;;;20.87;13.63;;;;;;;10.51;27.28;101884.47;5071930;28;20057;-62
2022/03/13 10:53:41;;;;;;;19.50;13.25;;;;;;;10.57;27.72;101880.97;5072238;28;20364;-64
2022/03/13 10:56:09;;;;;;;17.70;13.07;;;;;;;10.62;27.53;101866.09;5070195;28;20118;-63
2022/03/13 10:58:40;;;;;;;17.38;12.77;;;;;;;10.67;27.27;101868.72;5071141;28;20063;-64
2022/03/13 11:01:16;;;;;;;19.25;13.00;;;;;;;10.71;26.89;101866.09;5074578;28;20031;-64
2022/03/13 11:04:02;;;;;;;18.42;13.05;;;;;;;10.68;25.20;101865.22;5074454;28;20028;-63
2022/03/13 11:06:28;;;;;;;21.73;14.70;;;;;;;10.75;26.84;101861.72;5071501;28;20032;-62